Hedon, United Kingdom
Current Conditions -  °F | °C
As of 1:50 PM on Friday 19 Dec 2014 (Local Time) from EGNJ Reporting Station
Scattered Clouds Scattered Clouds  
Wind Chill: 41°   Ceiling: Unl
Heat Index: 48°   Visibility: 6mi
Dew Point: 37°   Wind: 23mph
Humidity: 66%   Direction: 260°W
Pressure: 29.85"   Gusts: 37mph
Location:  53.74°N, 0.2°W
Report Text: EGNJ 191350Z 26020G32KT 9999 SCT035 09/03 Q1011
Loading
Personal Weather Stations






























Interactive Weather Map New forecast layout! Learn more

10-Day Weather Forecast

Advertisements
Track Severe Weather on mobile